createdAt,value
2018-02-24T00:00:12.972Z,46.10
2018-02-24T00:01:12.918Z,48.40
2018-02-24T00:02:12.908Z,54.70
2018-02-24T00:03:12.896Z,50.90
2018-02-24T00:04:12.885Z,53.20
2018-02-24T00:05:12.972Z,56.40
2018-02-24T00:06:12.862Z,49.30
2018-02-24T00:07:12.849Z,53.00
2018-02-24T00:08:12.839Z,45.50
2018-02-24T00:09:12.827Z,51.10
2018-02-24T00:10:12.860Z,51.70
2018-02-24T00:11:12.804Z,55.00
2018-02-24T00:12:12.794Z,48.80
2018-02-24T00:13:12.781Z,47.60
2018-02-24T00:14:12.770Z,43.50
2018-02-24T00:15:12.858Z,51.90
2018-02-24T00:16:12.746Z,45.80
2018-02-24T00:17:12.734Z,50.30
2018-02-24T00:18:12.724Z,48.20
2018-02-24T00:19:12.711Z,50.40
2018-02-24T00:20:12.741Z,50.80
2018-02-24T00:21:12.749Z,47.90
2018-02-24T00:22:12.677Z,49.40
2018-02-24T00:23:12.663Z,49.80
2018-02-24T00:24:12.654Z,52.90
2018-02-24T00:25:13.325Z,50.40
2018-02-24T00:26:12.667Z,50.00
2018-02-24T00:27:12.621Z,45.20
2018-02-24T00:28:12.608Z,46.50
2018-02-24T00:29:12.598Z,50.40
2018-02-24T00:30:12.913Z,41.50
2018-02-24T00:31:12.617Z,47.50
2018-02-24T00:32:12.562Z,49.30
2018-02-24T00:33:12.550Z,45.50
2018-02-24T00:34:12.537Z,47.10
2018-02-24T00:35:12.525Z,52.40
2018-02-24T00:36:12.557Z,46.40
2018-02-24T00:37:12.504Z,45.40
2018-02-24T00:38:12.490Z,45.40
2018-02-24T00:39:12.479Z,49.90
2018-02-24T00:40:12.468Z,49.30
2018-02-24T00:41:12.504Z,50.30
2018-02-24T00:42:12.466Z,45.30
2018-02-24T00:43:12.435Z,50.10
2018-02-24T00:44:12.419Z,47.40
2018-02-24T00:45:12.447Z,51.40
2018-02-24T00:46:12.396Z,51.00
2018-02-24T00:47:12.385Z,43.60
2018-02-24T00:48:12.376Z,52.60
2018-02-24T00:49:12.361Z,46.60
2018-02-24T00:50:12.391Z,51.90
2018-02-24T00:51:12.339Z,43.00
2018-02-24T00:52:12.329Z,47.00
2018-02-24T00:53:12.315Z,50.20
2018-02-24T00:54:12.303Z,46.40
2018-02-24T00:55:12.327Z,48.50
2018-02-24T00:56:12.280Z,48.90
2018-02-24T00:57:12.267Z,51.60
2018-02-24T00:58:12.256Z,53.60
2018-02-24T00:59:12.245Z,48.10
2018-02-24T01:00:12.274Z,49.10
2018-02-24T01:01:12.226Z,52.70
2018-02-24T01:02:12.208Z,45.70
2018-02-24T01:03:12.195Z,52.60
2018-02-24T01:04:12.186Z,48.30
2018-02-24T01:05:12.213Z,47.60
2018-02-24T01:06:12.163Z,44.60
2018-02-24T01:07:12.149Z,48.30
2018-02-24T01:08:12.138Z,34.90
2018-02-24T01:09:12.819Z,41.20
2018-02-24T01:10:12.154Z,40.00
2018-02-24T01:11:12.114Z,48.40
2018-02-24T01:12:12.092Z,43.60
2018-02-24T01:13:12.082Z,50.90
2018-02-24T01:14:12.065Z,46.10
2018-02-24T01:15:12.110Z,52.60
2018-02-24T01:16:12.046Z,47.90
2018-02-24T01:17:12.035Z,44.60
2018-02-24T01:18:12.020Z,49.10
2018-02-24T01:19:12.010Z,48.80
2018-02-24T01:20:11.998Z,48.20
2018-02-24T01:21:12.026Z,45.50
2018-02-24T01:22:11.976Z,49.40
2018-02-24T01:23:11.965Z,46.60
2018-02-24T01:24:12.818Z,50.60
2018-02-24T01:25:11.981Z,51.40
2018-02-24T01:26:11.930Z,44.70
2018-02-24T01:27:11.916Z,47.20
2018-02-24T01:28:11.909Z,43.30
2018-02-24T01:29:11.899Z,48.30
2018-02-24T01:30:11.920Z,39.70
2018-02-24T01:31:11.870Z,52.70
2018-02-24T01:32:11.860Z,49.40
2018-02-24T01:33:11.865Z,49.00
2018-02-24T01:34:11.839Z,51.60
2018-02-24T01:35:11.866Z,52.70
2018-02-24T01:36:11.812Z,52.30
2018-02-24T01:37:11.803Z,49.90
2018-02-24T01:38:11.789Z,51.30
2018-02-24T01:39:11.778Z,50.20
2018-02-24T01:40:11.803Z,50.30
2018-02-24T01:41:11.753Z,52.50
2018-02-24T01:42:11.745Z,49.30
2018-02-24T01:43:11.731Z,32.50
2018-02-24T01:44:11.719Z,53.30
2018-02-24T01:45:11.770Z,50.30
2018-02-24T01:46:11.698Z,47.50
2018-02-24T01:47:11.683Z,46.70
2018-02-24T01:48:11.672Z,50.30
2018-02-24T01:49:11.661Z,50.20
2018-02-24T01:50:11.708Z,44.50
2018-02-24T01:51:11.639Z,24.20
2018-02-24T01:52:11.623Z,46.20
2018-02-24T01:53:11.615Z,52.40
2018-02-24T01:54:11.606Z,38.80
2018-02-24T01:55:11.648Z,44.10
2018-02-24T01:56:11.638Z,38.90
2018-02-24T01:57:11.572Z,47.30
2018-02-24T01:58:11.557Z,50.50
2018-02-24T01:59:11.550Z,49.20
2018-02-24T02:00:11.593Z,45.60
2018-02-24T02:01:11.517Z,50.30
2018-02-24T02:02:11.511Z,50.40
2018-02-24T02:03:11.497Z,49.40
2018-02-24T02:04:11.487Z,50.10
2018-02-24T02:05:11.512Z,47.90
2018-02-24T02:06:11.459Z,50.60
2018-02-24T02:07:11.448Z,49.20
2018-02-24T02:08:11.438Z,51.70
2018-02-24T02:09:11.434Z,50.50
2018-02-24T02:10:11.456Z,62.40
2018-02-24T02:11:11.406Z,49.80
2018-02-24T02:12:11.398Z,54.70
2018-02-24T02:13:11.381Z,51.70
2018-02-24T02:14:11.800Z,55.90
2018-02-24T02:15:11.356Z,51.90
2018-02-24T02:16:11.347Z,54.70
2018-02-24T02:17:11.333Z,47.90
2018-02-24T02:18:12.230Z,52.60
2018-02-24T02:19:11.349Z,49.40
2018-02-24T02:20:11.296Z,54.00
2018-02-24T02:21:11.286Z,53.20
2018-02-24T02:22:11.273Z,52.20
2018-02-24T02:23:11.263Z,47.60
2018-02-24T02:24:11.301Z,51.90
2018-02-24T02:25:11.238Z,54.70
2018-02-24T02:26:11.227Z,51.80
2018-02-24T02:27:11.212Z,53.40
2018-02-24T02:28:11.204Z,50.70
2018-02-24T02:29:11.196Z,54.20
2018-02-24T02:30:11.234Z,46.40
2018-02-24T02:31:11.171Z,52.80
2018-02-24T02:32:11.161Z,55.80
2018-02-24T02:33:11.146Z,57.50
2018-02-24T02:34:11.133Z,49.90
2018-02-24T02:35:11.160Z,48.30
2018-02-24T02:36:11.110Z,53.90
2018-02-24T02:37:11.099Z,56.30
2018-02-24T02:38:11.087Z,56.70
2018-02-24T02:39:11.079Z,51.00
2018-02-24T02:40:11.118Z,54.00
2018-02-24T02:41:11.056Z,51.30
2018-02-24T02:42:11.040Z,54.70
2018-02-24T02:43:11.030Z,54.80
2018-02-24T02:44:11.016Z,56.70
2018-02-24T02:45:11.049Z,55.40
2018-02-24T02:46:10.994Z,45.40
2018-02-24T02:47:10.982Z,55.10
2018-02-24T02:48:10.972Z,58.60
2018-02-24T02:49:10.957Z,55.90
2018-02-24T02:50:10.989Z,57.70
2018-02-24T02:51:10.935Z,62.00
2018-02-24T02:52:10.926Z,63.10
2018-02-24T02:53:10.910Z,60.00
2018-02-24T02:54:11.811Z,58.30
2018-02-24T02:55:10.933Z,59.70
2018-02-24T02:56:10.876Z,58.50
2018-02-24T02:57:10.864Z,54.30
2018-02-24T02:58:10.851Z,55.90
2018-02-24T02:59:10.842Z,52.60
2018-02-24T03:00:10.884Z,55.50
2018-02-24T03:01:10.817Z,54.30
2018-02-24T03:02:10.804Z,59.20
2018-02-24T03:03:10.794Z,55.40
2018-02-24T03:04:10.783Z,56.60
2018-02-24T03:05:10.810Z,48.60
2018-02-24T03:06:10.756Z,56.00
2018-02-24T03:07:10.741Z,56.10
2018-02-24T03:08:10.735Z,55.10
2018-02-24T03:09:10.722Z,55.90
2018-02-24T03:10:10.799Z,57.00
2018-02-24T03:11:10.697Z,58.60
2018-02-24T03:12:10.689Z,57.30
2018-02-24T03:13:10.688Z,54.90
2018-02-24T03:14:10.661Z,57.20
2018-02-24T03:15:10.707Z,53.30
2018-02-24T03:16:10.641Z,59.60
2018-02-24T03:17:10.629Z,55.30
2018-02-24T03:18:10.612Z,57.90
2018-02-24T03:19:10.602Z,46.80
2018-02-24T03:20:10.647Z,49.80
2018-02-24T03:21:10.578Z,56.10
2018-02-24T03:22:10.564Z,48.60
2018-02-24T03:23:10.555Z,59.10
2018-02-24T03:24:11.304Z,54.20
2018-02-24T03:25:10.578Z,55.60
2018-02-24T03:26:10.559Z,58.80
2018-02-24T03:27:10.508Z,54.80
2018-02-24T03:28:10.492Z,50.90
2018-02-24T03:29:10.480Z,59.70
2018-02-24T03:30:10.469Z,59.20
2018-02-24T03:31:10.496Z,53.90
2018-02-24T03:32:10.442Z,54.70
2018-02-24T03:33:10.433Z,54.90
2018-02-24T03:34:10.427Z,50.10
2018-02-24T03:35:10.410Z,53.70
2018-02-24T03:36:10.442Z,49.60
2018-02-24T03:37:10.383Z,54.10
2018-02-24T03:38:10.367Z,55.40
2018-02-24T03:39:10.360Z,48.80
2018-02-24T03:40:10.351Z,58.80
2018-02-24T03:41:10.380Z,56.00
2018-02-24T03:42:10.325Z,51.90
2018-02-24T03:43:10.311Z,42.40
2018-02-24T03:44:10.297Z,54.00
2018-02-24T03:45:10.288Z,56.60
2018-02-24T03:46:10.313Z,50.70
2018-02-24T03:47:10.260Z,53.00
2018-02-24T03:48:10.247Z,57.80
2018-02-24T03:49:10.237Z,54.60
2018-02-24T03:50:10.224Z,54.00
2018-02-24T03:51:10.251Z,54.80
2018-02-24T03:52:10.197Z,57.30
2018-02-24T03:53:10.185Z,60.10
2018-02-24T03:54:10.174Z,58.60
2018-02-24T03:55:10.161Z,55.80
2018-02-24T03:56:10.193Z,57.20
2018-02-24T03:57:10.154Z,52.50
2018-02-24T03:58:10.122Z,47.40
2018-02-24T03:59:10.116Z,58.30
2018-02-24T04:00:10.097Z,58.40
2018-02-24T04:01:10.124Z,57.30
2018-02-24T04:02:10.077Z,51.90
2018-02-24T04:03:10.060Z,63.40
2018-02-24T04:04:10.052Z,57.70
2018-02-24T04:05:10.080Z,58.70
2018-02-24T04:06:10.428Z,52.70
2018-02-24T04:07:10.016Z,54.80
2018-02-24T04:08:10.002Z,64.40
2018-02-24T04:09:09.987Z,59.40
2018-02-24T04:10:10.016Z,54.30
2018-02-24T04:11:09.963Z,55.40
2018-02-24T04:12:09.947Z,56.00
2018-02-24T04:13:09.939Z,45.20
2018-02-24T04:14:09.924Z,59.90
2018-02-24T04:15:09.969Z,56.80
2018-02-24T04:16:09.901Z,48.30
2018-02-24T04:17:09.888Z,52.30
2018-02-24T04:18:09.872Z,55.30
2018-02-24T04:19:09.861Z,53.50
2018-02-24T04:20:09.895Z,52.20
2018-02-24T04:21:09.840Z,59.50
2018-02-24T04:22:09.822Z,59.30
2018-02-24T04:23:09.813Z,57.80
2018-02-24T04:24:10.930Z,56.40
2018-02-24T04:25:09.809Z,55.80
2018-02-24T04:26:09.752Z,51.30
2018-02-24T04:27:09.743Z,53.20
2018-02-24T04:28:09.730Z,57.20
2018-02-24T04:29:09.717Z,50.80
2018-02-24T04:30:09.740Z,53.10
2018-02-24T04:31:09.692Z,49.40
2018-02-24T04:32:09.678Z,62.60
2018-02-24T04:33:09.668Z,58.00
2018-02-24T04:34:10.273Z,54.50
2018-02-24T04:35:09.684Z,54.30
2018-02-24T04:36:09.627Z,56.00
2018-02-24T04:37:09.616Z,55.90
2018-02-24T04:38:09.602Z,54.10
2018-02-24T04:39:09.589Z,55.70
2018-02-24T04:40:09.616Z,59.80
2018-02-24T04:41:09.565Z,58.00
2018-02-24T04:42:09.550Z,57.10
2018-02-24T04:43:09.542Z,56.70
2018-02-24T04:44:09.529Z,58.10
2018-02-24T04:45:09.559Z,56.10
2018-02-24T04:46:09.501Z,52.40
2018-02-24T04:47:09.491Z,56.40
2018-02-24T04:48:09.479Z,57.20
2018-02-24T04:49:09.463Z,55.10
2018-02-24T04:50:09.492Z,53.10
2018-02-24T04:51:09.438Z,53.10
2018-02-24T04:52:09.427Z,56.70
2018-02-24T04:53:09.413Z,59.70
2018-02-24T04:54:09.402Z,53.50
2018-02-24T04:55:09.429Z,57.80
2018-02-24T04:56:09.372Z,53.60
2018-02-24T04:57:09.365Z,50.60
2018-02-24T04:58:09.351Z,54.20
2018-02-24T04:59:09.338Z,55.40
2018-02-24T05:00:09.372Z,56.20
2018-02-24T05:01:09.311Z,51.80
2018-02-24T05:02:09.301Z,56.00
2018-02-24T05:03:09.296Z,54.70
2018-02-24T05:04:09.276Z,58.70
2018-02-24T05:05:09.302Z,57.30
2018-02-24T05:06:09.247Z,52.00
2018-02-24T05:07:09.235Z,52.30
2018-02-24T05:08:09.222Z,57.30
2018-02-24T05:09:09.207Z,58.60
2018-02-24T05:10:09.236Z,58.60
2018-02-24T05:11:09.182Z,62.20
2018-02-24T05:12:09.181Z,57.60
2018-02-24T05:13:09.159Z,62.30
2018-02-24T05:14:09.158Z,55.90
2018-02-24T05:15:09.190Z,59.00
2018-02-24T05:16:09.121Z,57.10
2018-02-24T05:17:09.111Z,64.20
2018-02-24T05:18:09.095Z,54.60
2018-02-24T05:19:09.121Z,63.30
2018-02-24T05:20:09.068Z,63.40
2018-02-24T05:21:09.058Z,58.30
2018-02-24T05:22:09.043Z,54.70
2018-02-24T05:23:09.034Z,54.70
2018-02-24T05:24:09.085Z,54.80
2018-02-24T05:25:09.004Z,56.50
2018-02-24T05:26:08.993Z,62.80
2018-02-24T05:27:08.978Z,57.20
2018-02-24T05:28:08.966Z,58.00
2018-02-24T05:29:09.024Z,59.30
2018-02-24T05:30:08.941Z,55.20
2018-02-24T05:31:08.929Z,59.70
2018-02-24T05:32:09.768Z,57.10
2018-02-24T05:33:08.900Z,56.60
2018-02-24T05:34:08.939Z,63.90
2018-02-24T05:35:08.876Z,60.10
2018-02-24T05:36:08.864Z,60.00
2018-02-24T05:37:08.857Z,54.10
2018-02-24T05:38:08.836Z,61.90
2018-02-24T05:39:08.861Z,55.30
2018-02-24T05:40:08.811Z,54.40
2018-02-24T05:41:08.799Z,55.30
2018-02-24T05:42:08.788Z,52.60
2018-02-24T05:43:08.769Z,58.10
2018-02-24T05:44:08.817Z,56.90
2018-02-24T05:45:08.746Z,61.00
2018-02-24T05:46:08.734Z,57.40
2018-02-24T05:47:08.722Z,55.30
2018-02-24T05:48:09.682Z,52.30
2018-02-24T05:49:08.738Z,69.20
2018-02-24T05:50:08.687Z,69.10
2018-02-24T05:51:08.671Z,77.60
2018-02-24T05:52:08.658Z,68.00
2018-02-24T05:53:08.648Z,73.50
2018-02-24T05:54:08.673Z,64.80
2018-02-24T05:55:08.618Z,66.00
2018-02-24T05:56:08.606Z,59.80
2018-02-24T05:57:08.598Z,58.30
2018-02-24T05:58:08.580Z,57.80
2018-02-24T05:59:08.625Z,59.30
2018-02-24T06:00:08.595Z,59.00
2018-02-24T06:01:08.542Z,58.00
2018-02-24T06:02:08.527Z,55.30
2018-02-24T06:03:08.523Z,56.20
2018-02-24T06:04:08.504Z,49.20
2018-02-24T06:05:08.531Z,55.40
2018-02-24T06:06:08.479Z,52.00
2018-02-24T06:07:08.472Z,55.50
2018-02-24T06:08:08.452Z,51.20
2018-02-24T06:09:08.441Z,61.60
2018-02-24T06:10:08.469Z,56.60
2018-02-24T06:11:08.415Z,57.70
2018-02-24T06:12:08.400Z,54.50
2018-02-24T06:13:08.388Z,58.80
2018-02-24T06:14:08.377Z,67.00
2018-02-24T06:15:08.402Z,51.60
2018-02-24T06:16:08.356Z,44.20
2018-02-24T06:17:09.008Z,64.00
2018-02-24T06:18:08.323Z,67.90
2018-02-24T06:19:08.308Z,63.40
2018-02-24T06:20:08.338Z,62.10
2018-02-24T06:21:08.284Z,58.50
2018-02-24T06:22:08.269Z,66.40
2018-02-24T06:23:08.260Z,51.30
2018-02-24T06:24:08.243Z,55.10
2018-02-24T06:25:08.292Z,52.30
2018-02-24T06:26:08.222Z,56.80
2018-02-24T06:27:08.209Z,61.40
2018-02-24T06:28:08.194Z,53.40
2018-02-24T06:29:08.226Z,58.40
2018-02-24T06:30:08.168Z,60.30
2018-02-24T06:31:08.198Z,56.20
2018-02-24T06:32:08.143Z,60.20
2018-02-24T06:33:08.134Z,48.40
2018-02-24T06:34:08.120Z,55.40
2018-02-24T06:35:08.164Z,59.10
2018-02-24T06:36:08.099Z,59.10
2018-02-24T06:37:08.077Z,58.10
2018-02-24T06:38:08.068Z,48.20
2018-02-24T06:39:08.093Z,60.80
2018-02-24T06:40:08.045Z,38.00
2018-02-24T06:41:08.078Z,44.80
2018-02-24T06:42:08.015Z,53.10
2018-02-24T06:43:08.001Z,52.10
2018-02-24T06:44:07.993Z,39.20
2018-02-24T06:45:08.022Z,63.00
2018-02-24T06:46:07.966Z,56.80
2018-02-24T06:47:07.957Z,55.50
2018-02-24T06:48:07.940Z,57.10
2018-02-24T06:49:07.928Z,46.00
2018-02-24T06:50:07.961Z,45.90
2018-02-24T06:51:07.904Z,44.90
2018-02-24T06:52:07.893Z,54.20
2018-02-24T06:53:07.881Z,51.70
2018-02-24T06:54:07.867Z,52.70
2018-02-24T06:55:07.900Z,57.20
2018-02-24T06:56:07.846Z,55.20
2018-02-24T06:57:07.843Z,54.10
2018-02-24T06:58:07.823Z,48.00
2018-02-24T06:59:07.810Z,62.80
2018-02-24T07:00:07.856Z,58.10
2018-02-24T07:01:07.793Z,53.50
2018-02-24T07:02:07.777Z,51.30
2018-02-24T07:03:07.769Z,51.60
2018-02-24T07:04:07.794Z,46.30
2018-02-24T07:05:07.787Z,50.60
2018-02-24T07:06:07.754Z,49.40
2018-02-24T07:07:07.725Z,46.20
2018-02-24T07:08:07.713Z,45.50
2018-02-24T07:09:07.707Z,51.50
2018-02-24T07:10:08.683Z,44.40
2018-02-24T07:11:07.696Z,38.20
2018-02-24T07:12:07.680Z,47.90
2018-02-24T07:13:07.673Z,48.70
2018-02-24T07:14:07.665Z,39.10
2018-02-24T07:15:07.695Z,45.30
2018-02-24T07:16:07.646Z,43.80
2018-02-24T07:17:07.638Z,45.30
2018-02-24T07:18:07.647Z,37.60
2018-02-24T07:19:07.624Z,43.30
2018-02-24T07:20:07.658Z,47.30
2018-02-24T07:21:07.611Z,43.60
2018-02-24T07:22:07.600Z,46.10
2018-02-24T07:23:07.600Z,42.50
2018-02-24T07:24:07.590Z,45.40
2018-02-24T07:25:07.636Z,42.60
2018-02-24T07:26:07.574Z,40.80
2018-02-24T07:27:07.574Z,34.20
2018-02-24T07:28:07.565Z,46.70
2018-02-24T07:29:07.558Z,42.90
2018-02-24T07:30:07.599Z,32.10
2018-02-24T07:31:07.550Z,44.40
2018-02-24T07:32:07.539Z,45.50
2018-02-24T07:33:07.534Z,40.70
2018-02-24T07:34:07.527Z,45.60
2018-02-24T07:35:07.566Z,43.50
2018-02-24T07:36:07.518Z,43.10
2018-02-24T07:37:07.512Z,43.60
2018-02-24T07:38:07.513Z,39.60
2018-02-24T07:39:07.504Z,41.20
2018-02-24T07:40:07.549Z,41.80
2018-02-24T07:41:07.494Z,39.10
2018-02-24T07:42:07.488Z,39.50
2018-02-24T07:43:07.488Z,37.20
2018-02-24T07:44:07.485Z,34.80
2018-02-24T07:45:07.518Z,41.30
2018-02-24T07:46:07.470Z,38.20
2018-02-24T07:47:07.471Z,38.80
2018-02-24T07:48:07.468Z,40.40
2018-02-24T07:49:07.459Z,35.70
2018-02-24T07:50:07.497Z,40.90
2018-02-24T07:51:07.454Z,42.40
2018-02-24T07:52:07.448Z,37.90
2018-02-24T07:53:07.449Z,33.20
2018-02-24T07:54:07.441Z,33.30
2018-02-24T07:55:08.179Z,34.90
2018-02-24T07:56:07.435Z,27.40
2018-02-24T07:57:07.431Z,40.10
2018-02-24T07:58:07.426Z,30.70
2018-02-24T07:59:07.425Z,39.20
2018-02-24T08:00:07.420Z,36.80
2018-02-24T08:01:07.470Z,37.20
2018-02-24T08:02:07.421Z,29.30
2018-02-24T08:03:07.412Z,36.80
2018-02-24T08:04:07.415Z,25.70
2018-02-24T08:05:07.420Z,27.20
2018-02-24T08:06:07.464Z,33.80
2018-02-24T08:07:07.406Z,36.00
2018-02-24T08:08:07.401Z,34.70
2018-02-24T08:09:07.441Z,34.70
2018-02-24T08:10:07.398Z,32.10
2018-02-24T08:11:07.397Z,34.40
2018-02-24T08:12:07.436Z,27.80
2018-02-24T08:13:07.394Z,26.40
2018-02-24T08:14:07.388Z,31.50
2018-02-24T08:15:07.390Z,25.40
2018-02-24T08:16:07.389Z,31.50
2018-02-24T08:17:07.434Z,29.50
2018-02-24T08:18:07.385Z,31.80
2018-02-24T08:19:07.382Z,29.40
2018-02-24T08:20:07.381Z,19.20
2018-02-24T08:21:07.436Z,32.50
2018-02-24T08:22:07.375Z,34.50
2018-02-24T08:23:07.376Z,24.60
2018-02-24T08:24:07.412Z,30.60
2018-02-24T08:25:07.493Z,18.30
2018-02-24T08:26:07.371Z,22.80
2018-02-24T08:27:07.416Z,26.60
2018-02-24T08:28:07.367Z,26.20
2018-02-24T08:29:07.370Z,29.30
2018-02-24T08:30:07.360Z,28.70
2018-02-24T08:31:07.359Z,27.40
2018-02-24T08:32:07.409Z,30.00
2018-02-24T08:33:07.355Z,21.80
2018-02-24T08:34:07.385Z,24.00
2018-02-24T08:35:07.346Z,28.10
2018-02-24T08:36:07.338Z,19.20
2018-02-24T08:37:07.375Z,21.10
2018-02-24T08:38:07.330Z,26.40
2018-02-24T08:39:07.327Z,27.50
2018-02-24T08:40:07.321Z,26.70
2018-02-24T08:41:07.318Z,22.60
2018-02-24T08:42:07.350Z,22.80
2018-02-24T08:43:07.309Z,19.50
2018-02-24T08:44:07.304Z,22.00
2018-02-24T08:45:07.296Z,27.00
2018-02-24T08:46:07.290Z,18.10
2018-02-24T08:47:07.341Z,15.80
2018-02-24T08:48:07.278Z,22.70
2018-02-24T08:49:07.316Z,14.40
2018-02-24T08:50:07.266Z,27.90
2018-02-24T08:51:07.959Z,29.40
2018-02-24T08:52:07.295Z,13.90
2018-02-24T08:53:07.249Z,27.40
2018-02-24T08:54:07.237Z,20.20
2018-02-24T08:55:07.231Z,15.10
2018-02-24T08:56:07.226Z,23.50
2018-02-24T08:57:07.274Z,27.90
2018-02-24T08:58:07.215Z,30.40
2018-02-24T08:59:07.205Z,31.20
2018-02-24T09:00:07.198Z,31.20
2018-02-24T09:01:07.192Z,30.80
2018-02-24T09:02:07.190Z,25.80
2018-02-24T09:03:07.221Z,23.80
2018-02-24T09:04:07.169Z,32.50
2018-02-24T09:05:07.163Z,29.90
2018-02-24T09:06:07.155Z,27.40
2018-02-24T09:07:07.189Z,20.90
2018-02-24T09:08:07.151Z,24.40
2018-02-24T09:09:07.127Z,24.80
2018-02-24T09:10:07.129Z,20.80
2018-02-24T09:11:07.142Z,26.40
2018-02-24T09:12:07.148Z,25.00
2018-02-24T09:13:07.128Z,11.00
2018-02-24T09:14:07.097Z,22.50
2018-02-24T09:15:07.084Z,25.80
2018-02-24T09:16:07.080Z,22.80
2018-02-24T09:17:07.108Z,28.90
2018-02-24T09:18:07.063Z,28.50
2018-02-24T09:19:07.065Z,24.90
2018-02-24T09:20:07.047Z,24.40
2018-02-24T09:21:07.040Z,19.60
2018-02-24T09:22:07.095Z,21.10
2018-02-24T09:23:07.067Z,23.70
2018-02-24T09:24:07.016Z,23.60
2018-02-24T09:25:07.017Z,27.20
2018-02-24T09:26:07.002Z,24.70
2018-02-24T09:27:07.053Z,20.10
2018-02-24T09:28:07.029Z,25.30
2018-02-24T09:29:06.985Z,22.50
2018-02-24T09:30:06.972Z,22.00
2018-02-24T09:31:06.965Z,22.00
2018-02-24T09:32:06.996Z,25.50
2018-02-24T09:33:06.947Z,16.70
2018-02-24T09:34:06.944Z,25.90
2018-02-24T09:35:06.942Z,18.80
2018-02-24T09:36:06.941Z,13.80
2018-02-24T09:37:06.965Z,26.20
2018-02-24T09:38:06.916Z,19.70
2018-02-24T09:39:06.905Z,24.80
2018-02-24T09:40:06.905Z,21.70
2018-02-24T09:41:06.890Z,22.60
2018-02-24T09:42:06.919Z,21.60
2018-02-24T09:43:06.875Z,23.90
2018-02-24T09:44:06.865Z,25.00
2018-02-24T09:45:06.858Z,18.00
2018-02-24T09:46:06.850Z,27.40
2018-02-24T09:47:06.880Z,27.60
2018-02-24T09:48:06.836Z,29.10
2018-02-24T09:49:06.833Z,26.30
2018-02-24T09:50:06.821Z,19.10
2018-02-24T09:51:06.814Z,26.20
2018-02-24T09:52:06.851Z,19.40
2018-02-24T09:53:06.803Z,30.10
2018-02-24T09:54:06.791Z,28.60
2018-02-24T09:55:06.790Z,31.90
2018-02-24T09:56:06.780Z,14.90
2018-02-24T09:57:06.817Z,18.10
2018-02-24T09:58:06.764Z,17.40
2018-02-24T09:59:06.760Z,19.90
2018-02-24T10:00:06.752Z,18.10
2018-02-24T10:01:06.794Z,20.10
2018-02-24T10:02:06.735Z,23.80
2018-02-24T10:03:06.734Z,26.60
2018-02-24T10:04:06.738Z,23.30
2018-02-24T10:05:06.718Z,24.00
2018-02-24T10:06:06.780Z,23.50
2018-02-24T10:07:06.716Z,26.60
2018-02-24T10:08:06.703Z,26.70
2018-02-24T10:09:06.697Z,31.10
2018-02-24T10:10:06.690Z,23.70
2018-02-24T10:11:06.720Z,24.20
2018-02-24T10:12:06.679Z,26.00
2018-02-24T10:13:06.681Z,22.70
2018-02-24T10:14:06.669Z,26.30
2018-02-24T10:15:06.661Z,24.10
2018-02-24T10:16:06.695Z,25.90
2018-02-24T10:17:06.654Z,19.70
2018-02-24T10:18:06.651Z,20.80
2018-02-24T10:19:06.643Z,24.90
2018-02-24T10:20:06.642Z,22.30
2018-02-24T10:21:06.673Z,25.40
2018-02-24T10:22:06.632Z,27.30
2018-02-24T10:23:06.627Z,18.50
2018-02-24T10:24:06.627Z,23.20
2018-02-24T10:25:06.620Z,22.60
2018-02-24T10:26:06.654Z,22.80
2018-02-24T10:27:06.614Z,18.60
2018-02-24T10:28:06.611Z,16.10
2018-02-24T10:29:06.613Z,23.50
2018-02-24T10:30:06.609Z,22.30
2018-02-24T10:31:06.901Z,14.20
2018-02-24T10:32:06.603Z,15.40
2018-02-24T10:33:06.599Z,15.30
2018-02-24T10:34:06.601Z,22.20
2018-02-24T10:35:06.598Z,21.10
2018-02-24T10:36:06.634Z,24.10
2018-02-24T10:37:06.593Z,24.00
2018-02-24T10:38:06.592Z,14.50
2018-02-24T10:39:06.587Z,13.40
2018-02-24T10:40:06.588Z,24.60
2018-02-24T10:41:06.629Z,19.90
2018-02-24T10:42:07.002Z,16.00
2018-02-24T10:43:06.580Z,17.20
2018-02-24T10:44:06.581Z,17.20
2018-02-24T10:45:06.577Z,15.70
2018-02-24T10:46:06.630Z,26.00
2018-02-24T10:47:06.575Z,19.70
2018-02-24T10:48:06.627Z,23.30
2018-02-24T10:49:06.567Z,18.30
2018-02-24T10:50:06.566Z,18.40
2018-02-24T10:51:06.564Z,15.30
2018-02-24T10:52:06.561Z,22.70
2018-02-24T10:53:06.595Z,17.60
2018-02-24T10:54:06.555Z,17.70
2018-02-24T10:55:06.554Z,19.70
2018-02-24T10:56:06.593Z,19.80
2018-02-24T10:57:06.552Z,14.10
2018-02-24T10:58:06.910Z,13.80
2018-02-24T10:59:06.542Z,14.70
2018-02-24T11:00:06.540Z,17.90
2018-02-24T11:01:06.587Z,15.80
2018-02-24T11:02:06.538Z,14.50
2018-02-24T11:03:06.531Z,19.80
2018-02-24T11:04:06.524Z,16.00
2018-02-24T11:05:06.525Z,16.30
2018-02-24T11:06:06.577Z,12.90
2018-02-24T11:07:06.520Z,16.60
2018-02-24T11:08:06.554Z,12.60
2018-02-24T11:09:06.507Z,15.00
2018-02-24T11:10:06.501Z,15.10
2018-02-24T11:11:06.506Z,16.30
2018-02-24T11:12:06.538Z,15.40
2018-02-24T11:13:06.494Z,14.60
2018-02-24T11:14:06.488Z,12.50
2018-02-24T11:15:06.486Z,14.90
2018-02-24T11:16:06.479Z,13.70
2018-02-24T11:17:06.534Z,16.10
2018-02-24T11:18:06.473Z,16.70
2018-02-24T11:19:06.468Z,14.50
2018-02-24T11:20:06.466Z,15.20
2018-02-24T11:21:06.467Z,14.70
2018-02-24T11:22:06.498Z,15.00
2018-02-24T11:23:06.592Z,11.60
2018-02-24T11:24:06.446Z,13.30
2018-02-24T11:25:06.438Z,13.40
2018-02-24T11:26:06.433Z,15.10
2018-02-24T11:27:06.490Z,15.70
2018-02-24T11:28:06.426Z,12.20
2018-02-24T11:29:06.442Z,11.10
2018-02-24T11:30:06.416Z,12.40
2018-02-24T11:31:06.417Z,17.20
2018-02-24T11:32:06.445Z,14.90
2018-02-24T11:33:06.444Z,14.30
2018-02-24T11:34:06.397Z,10.50
2018-02-24T11:35:06.391Z,19.10
2018-02-24T11:36:06.386Z,17.00
2018-02-24T11:37:06.383Z,14.90
2018-02-24T11:38:06.416Z,16.70
2018-02-24T11:39:06.370Z,16.60
2018-02-24T11:40:06.367Z,13.00
2018-02-24T11:41:06.361Z,13.00
2018-02-24T11:42:06.360Z,13.40
2018-02-24T11:43:06.408Z,12.30
2018-02-24T11:44:06.345Z,10.60
2018-02-24T11:45:06.344Z,9.20
2018-02-24T11:46:06.334Z,12.00
2018-02-24T11:47:06.332Z,6.50
2018-02-24T11:48:06.362Z,9.80
2018-02-24T11:49:06.323Z,10.60
2018-02-24T11:50:06.376Z,9.20
2018-02-24T11:51:06.311Z,10.30
2018-02-24T11:52:06.310Z,9.70
2018-02-24T11:53:06.372Z,10.10
2018-02-24T11:54:06.305Z,10.60
2018-02-24T11:55:06.301Z,6.80
2018-02-24T11:56:06.300Z,4.70
2018-02-24T11:57:06.295Z,5.90
2018-02-24T11:58:06.332Z,5.20
2018-02-24T11:59:06.295Z,5.90
2018-02-24T12:00:06.287Z,6.80
2018-02-24T12:01:06.287Z,5.70
2018-02-24T12:02:06.285Z,6.30
2018-02-24T12:03:06.322Z,6.80
2018-02-24T12:04:06.286Z,4.70
2018-02-24T12:05:06.288Z,6.60
2018-02-24T12:06:06.288Z,5.50
2018-02-24T12:07:06.285Z,6.70
2018-02-24T12:08:06.326Z,5.10
2018-02-24T12:09:06.288Z,4.50
2018-02-24T12:10:06.293Z,6.00
2018-02-24T12:11:06.300Z,9.10
2018-02-24T12:12:06.302Z,5.60
2018-02-24T12:13:06.360Z,10.30
2018-02-24T12:14:06.363Z,6.60
2018-02-24T12:15:06.311Z,4.60
2018-02-24T12:16:06.317Z,4.90
2018-02-24T12:17:06.361Z,5.70
2018-02-24T12:18:06.366Z,5.10
2018-02-24T12:19:06.332Z,5.60
2018-02-24T12:20:06.337Z,5.40
2018-02-24T12:21:06.353Z,5.40
2018-02-24T12:22:06.349Z,4.70
2018-02-24T12:23:06.397Z,5.60
2018-02-24T12:24:06.358Z,3.80
2018-02-24T12:25:06.365Z,3.50
2018-02-24T12:26:06.369Z,6.60
2018-02-24T12:27:06.427Z,5.40
2018-02-24T12:28:06.418Z,5.60
2018-02-24T12:29:06.386Z,7.10
2018-02-24T12:30:06.388Z,6.00
2018-02-24T12:31:06.395Z,4.40
2018-02-24T12:32:06.403Z,7.50
2018-02-24T12:33:06.598Z,7.20
2018-02-24T12:34:06.408Z,7.10
2018-02-24T12:35:06.415Z,5.20
2018-02-24T12:36:06.419Z,8.50
2018-02-24T12:37:06.433Z,5.10
2018-02-24T12:38:06.472Z,10.60
2018-02-24T12:39:06.435Z,7.30
2018-02-24T12:40:06.444Z,8.10
2018-02-24T12:41:06.452Z,4.60
2018-02-24T12:42:06.455Z,6.00
2018-02-24T12:43:06.497Z,7.10
2018-02-24T12:44:06.467Z,7.80
2018-02-24T12:45:06.581Z,6.20
2018-02-24T12:46:06.481Z,6.50
2018-02-24T12:47:06.479Z,7.30
2018-02-24T12:48:06.527Z,6.80
2018-02-24T12:49:06.492Z,5.80
2018-02-24T12:50:06.496Z,7.50
2018-02-24T12:51:06.502Z,6.20
2018-02-24T12:52:06.505Z,5.40
2018-02-24T12:53:06.568Z,8.00
2018-02-24T12:54:06.510Z,6.30